Time;durP1;ratioP1;P1;durP2;ratioP2;P2;SDS_P1;SDS_P2;PMS_P1;PMS_P2;Temp;Humidity;BMP_temperature;BMP_pressure;BME280_temperature;BME280_humidity;BME280_pressure;Samples;Min_cycle;Max_cycle;Signal;HPM_P1;HPM_P2
2023/07/15 00:01:37;;;;;;;2.83;1.90;;;22.90;1.00;;;;;;4983141;28;20283;-60
2023/07/15 00:04:11;;;;;;;2.73;2.00;;;23.00;1.00;;;;;;4982244;28;20328;-60
2023/07/15 00:06:39;;;;;;;5.07;1.80;;;23.00;1.00;;;;;;4980084;28;20206;-60
2023/07/15 00:09:06;;;;;;;2.50;1.80;;;22.90;1.00;;;;;;4981934;28;20199;-62
2023/07/15 00:11:42;;;;;;;3.77;2.30;;;22.90;1.00;;;;;;4977609;28;20231;-60
2023/07/15 00:14:21;;;;;;;2.93;1.93;;;22.90;1.00;;;;;;4978941;28;22382;-59
2023/07/15 00:16:52;;;;;;;3.70;2.07;;;22.90;1.00;;;;;;4977615;28;20667;-59
2023/07/15 00:19:19;;;;;;;3.47;2.33;;;22.90;1.00;;;;;;4983736;28;20246;-60
2023/07/15 00:21:47;;;;;;;6.10;2.33;;;22.90;1.00;;;;;;4982159;28;20222;-60
2023/07/15 00:24:14;;;;;;;2.87;1.70;;;22.90;1.00;;;;;;4977692;28;20193;-60
2023/07/15 00:26:41;;;;;;;6.80;2.00;;;23.00;1.00;;;;;;4977380;28;20204;-59
2023/07/15 00:29:08;;;;;;;5.10;1.97;;;23.00;1.00;;;;;;4979735;28;20643;-59
2023/07/15 00:31:36;;;;;;;7.63;2.40;;;22.90;1.00;;;;;;4978558;28;20538;-59
2023/07/15 00:34:04;;;;;;;5.23;1.97;;;22.90;1.00;;;;;;4973161;28;20646;-60
2023/07/15 00:36:32;;;;;;;2.10;1.67;;;23.00;1.00;;;;;;4978914;28;20205;-60
2023/07/15 00:38:59;;;;;;;3.53;2.10;;;23.00;1.00;;;;;;4985724;28;20204;-59
2023/07/15 00:41:33;;;;;;;4.97;1.90;;;23.10;1.00;;;;;;4982746;28;20211;-59
2023/07/15 00:44:00;;;;;;;3.60;2.00;;;23.10;1.00;;;;;;4981690;28;20216;-59
2023/07/15 00:46:41;;;;;;;2.10;1.80;;;23.10;1.00;;;;;;4980056;28;20226;-59
2023/07/15 00:49:14;;;;;;;2.53;1.77;;;23.00;1.00;;;;;;4981181;28;20194;-59
2023/07/15 00:51:47;;;;;;;2.10;1.90;;;23.00;1.00;;;;;;4979884;28;20201;-59
2023/07/15 00:54:14;;;;;;;2.50;2.30;;;23.00;1.00;;;;;;4978317;28;20226;-59
2023/07/15 00:56:44;;;;;;;2.00;1.80;;;23.00;1.00;;;;;;4980312;28;20240;-59
2023/07/15 00:59:14;;;;;;;7.43;2.10;;;22.90;1.00;;;;;;4979930;28;20209;-59
2023/07/15 01:01:42;;;;;;;3.03;1.90;;;22.80;1.00;;;;;;4978634;28;20303;-59
2023/07/15 01:04:09;;;;;;;4.03;2.20;;;22.80;1.00;;;;;;4987619;22;20333;-88
2023/07/15 01:06:36;;;;;;;3.83;1.90;;;22.70;1.00;;;;;;4996996;28;20265;-86
2023/07/15 01:09:07;;;;;;;4.10;1.80;;;22.70;1.00;;;;;;4990228;28;20202;-89
2023/07/15 01:11:34;;;;;;;3.93;1.90;;;22.70;1.00;;;;;;4995386;28;20392;-86
2023/07/15 01:14:02;;;;;;;2.70;1.90;;;22.60;1.00;;;;;;4990132;28;20199;-85
2023/07/15 01:16:28;;;;;;;3.63;1.77;;;22.50;1.00;;;;;;5003038;28;20509;-89
2023/07/15 01:18:56;;;;;;;3.17;2.10;;;22.50;1.00;;;;;;5005437;28;20204;-90
2023/07/15 01:21:27;;;;;;;3.17;2.10;;;22.40;1.00;;;;;;5003051;28;20213;-89
2023/07/15 01:23:55;;;;;;;3.33;1.93;;;22.40;1.00;;;;;;5000660;28;20264;-86
2023/07/15 01:26:21;;;;;;;3.50;1.60;;;22.30;1.00;;;;;;4997399;28;20264;-84
2023/07/15 01:28:49;;;;;;;2.37;2.10;;;22.30;1.00;;;;;;5004845;28;20197;-88
2023/07/15 01:31:18;;;;;;;4.53;2.27;;;22.20;1.00;;;;;;4991836;28;20260;-87
2023/07/15 01:33:47;;;;;;;2.87;1.60;;;22.20;1.00;;;;;;4982344;28;20201;-88
2023/07/15 01:36:14;;;;;;;3.03;2.00;;;22.30;1.00;;;;;;4991246;28;20237;-87
2023/07/15 01:38:41;;;;;;;4.47;2.00;;;22.20;1.00;;;;;;4989396;28;20295;-87
2023/07/15 01:41:09;;;;;;;2.70;1.83;;;22.10;1.00;;;;;;4987187;28;20233;-87
2023/07/15 01:43:36;;;;;;;3.00;1.90;;;22.00;1.00;;;;;;4992422;28;20584;-85
2023/07/15 01:46:02;;;;;;;4.40;2.00;;;22.00;1.00;;;;;;4993491;28;20726;-87
2023/07/15 01:48:29;;;;;;;4.40;1.80;;;22.00;1.00;;;;;;4994637;28;20221;-87
2023/07/15 01:50:56;;;;;;;2.63;2.00;;;21.90;1.00;;;;;;4990793;28;20838;-90
2023/07/15 01:53:23;;;;;;;5.07;2.13;;;21.80;1.00;;;;;;4987564;28;20245;-91
2023/07/15 01:55:50;;;;;;;5.93;2.00;;;21.80;1.00;;;;;;5003711;28;20221;-85
2023/07/15 01:58:17;;;;;;;3.63;2.13;;;21.80;1.00;;;;;;4994443;28;20234;-88
2023/07/15 02:00:43;;;;;;;6.23;2.00;;;21.60;1.00;;;;;;4987449;28;20253;-88
2023/07/15 02:03:10;;;;;;;3.43;1.87;;;21.60;1.00;;;;;;4987818;28;20256;-88
2023/07/15 02:05:37;;;;;;;3.67;2.00;;;21.60;1.00;;;;;;4988126;28;20207;-89
2023/07/15 02:08:05;;;;;;;3.27;1.90;;;21.60;1.00;;;;;;4987268;28;20210;-91
2023/07/15 02:10:32;;;;;;;4.97;1.77;;;21.50;1.00;;;;;;4989487;28;20206;-88
2023/07/15 02:12:59;;;;;;;4.37;2.20;;;21.60;1.00;;;;;;4986761;28;20230;-91
2023/07/15 02:15:26;;;;;;;2.60;1.93;;;21.70;1.00;;;;;;4987615;28;20208;-84
2023/07/15 02:17:53;;;;;;;2.03;1.77;;;21.70;1.00;;;;;;4986760;28;20884;-89
2023/07/15 02:20:21;;;;;;;1.90;1.57;;;21.60;1.00;;;;;;4985299;28;20245;-83
2023/07/15 02:22:48;;;;;;;5.40;2.10;;;21.50;1.00;;;;;;4983362;28;20748;-85
2023/07/15 02:25:16;;;;;;;3.13;1.87;;;21.60;1.00;;;;;;4986103;28;20194;-86
2023/07/15 02:27:43;;;;;;;4.73;2.20;;;21.60;1.00;;;;;;4981667;28;20225;-83
2023/07/15 02:30:10;;;;;;;2.60;2.20;;;21.50;1.00;;;;;;4981130;28;20202;-85
2023/07/15 02:32:39;;;;;;;4.07;2.00;;;21.50;1.00;;;;;;4986590;28;20198;-87
2023/07/15 02:35:12;;;;;;;4.20;2.03;;;21.50;1.00;;;;;;5005106;28;20202;-86
2023/07/15 02:37:43;;;;;;;3.97;2.43;;;21.50;1.00;;;;;;4981884;28;20718;-90
2023/07/15 02:40:11;;;;;;;2.40;2.00;;;21.50;1.00;;;;;;4984107;28;20229;-88
2023/07/15 02:42:38;;;;;;;5.17;1.67;;;21.40;1.00;;;;;;4985275;28;20280;-89
2023/07/15 02:45:09;;;;;;;3.23;2.03;;;21.30;1.00;;;;;;4986972;28;20569;-85
2023/07/15 02:47:39;;;;;;;5.67;2.27;;;21.20;1.00;;;;;;4983079;28;20539;-89
2023/07/15 02:50:07;;;;;;;3.37;2.03;;;21.20;1.00;;;;;;4981556;28;20202;-86
2023/07/15 02:52:36;;;;;;;6.23;2.00;;;21.30;1.00;;;;;;4985511;28;20293;-84
2023/07/15 02:55:06;;;;;;;5.13;1.80;;;21.20;1.00;;;;;;4979969;28;20205;-89
2023/07/15 02:57:34;;;;;;;4.27;1.93;;;21.20;1.00;;;;;;4989371;28;20237;-89
2023/07/15 03:00:07;;;;;;;3.83;2.00;;;21.20;1.00;;;;;;5001067;28;20217;-84
2023/07/15 03:02:35;;;;;;;4.97;2.30;;;21.10;1.00;;;;;;4992299;28;21011;-87
2023/07/15 03:05:02;;;;;;;2.37;1.70;;;21.20;1.00;;;;;;4996316;28;20245;-88
2023/07/15 03:07:29;;;;;;;3.50;1.90;;;21.20;1.00;;;;;;5000688;28;20202;-86
2023/07/15 03:09:56;;;;;;;3.97;2.00;;;21.00;1.00;;;;;;4993736;28;20285;-90
2023/07/15 03:12:23;;;;;;;2.53;1.93;;;21.10;1.00;;;;;;4990560;28;20202;-89
2023/07/15 03:14:50;;;;;;;2.20;1.73;;;21.00;1.00;;;;;;4990576;28;20216;-82
2023/07/15 03:17:17;;;;;;;2.70;1.90;;;21.00;1.00;;;;;;4990767;28;20225;-89
2023/07/15 03:19:44;;;;;;;3.50;2.07;;;20.90;1.00;;;;;;4991165;28;20207;-91
2023/07/15 03:22:11;;;;;;;4.00;1.90;;;20.90;1.00;;;;;;4988220;28;20231;-87
2023/07/15 03:24:38;;;;;;;3.67;2.07;;;20.80;1.00;;;;;;4988234;28;20215;-89
2023/07/15 03:27:05;;;;;;;2.63;1.73;;;20.70;1.00;;;;;;4983022;28;20904;-77
2023/07/15 03:29:32;;;;;;;2.13;1.70;;;20.80;1.00;;;;;;4982260;28;20214;-77
2023/07/15 03:31:59;;;;;;;2.83;1.93;;;20.70;1.00;;;;;;4984569;28;20206;-77
2023/07/15 03:34:26;;;;;;;6.70;2.60;;;20.70;1.00;;;;;;4986967;28;20684;-78
2023/07/15 03:36:53;;;;;;;2.10;1.90;;;20.60;1.00;;;;;;4987733;28;20700;-76
2023/07/15 03:39:21;;;;;;;2.20;1.90;;;20.60;1.00;;;;;;4999722;28;20264;-79
2023/07/15 03:41:48;;;;;;;3.53;2.33;;;20.60;1.00;;;;;;4988761;28;20231;-76
2023/07/15 03:44:15;;;;;;;2.67;1.77;;;20.50;1.00;;;;;;5000546;28;20858;-76
2023/07/15 03:46:42;;;;;;;4.07;1.67;;;20.50;1.00;;;;;;4984726;28;20194;-76
2023/07/15 03:49:09;;;;;;;3.40;2.20;;;20.30;1.00;;;;;;4984055;28;20226;-76
2023/07/15 03:51:36;;;;;;;7.23;2.10;;;20.40;1.00;;;;;;4990760;28;20208;-77
2023/07/15 03:54:05;;;;;;;2.43;1.90;;;20.50;1.00;;;;;;4981191;28;20206;-78
2023/07/15 03:56:33;;;;;;;3.60;2.00;;;20.40;1.00;;;;;;4985477;28;20237;-76
2023/07/15 03:59:00;;;;;;;3.70;2.33;;;20.40;1.00;;;;;;4978914;28;20211;-78
2023/07/15 04:01:27;;;;;;;5.53;1.80;;;20.30;1.00;;;;;;4981852;28;20206;-78
2023/07/15 04:03:54;;;;;;;3.57;1.97;;;20.30;1.00;;;;;;4981099;28;20302;-77
2023/07/15 04:06:21;;;;;;;4.03;2.20;;;20.30;1.00;;;;;;4984635;28;20202;-80
2023/07/15 04:08:49;;;;;;;5.70;2.20;;;20.40;1.00;;;;;;4983592;28;20210;-76
2023/07/15 04:11:17;;;;;;;4.20;2.30;;;20.40;1.00;;;;;;4982271;28;21159;-76
2023/07/15 04:13:44;;;;;;;3.97;2.27;;;20.40;1.00;;;;;;4983227;28;20213;-75
2023/07/15 04:16:12;;;;;;;3.73;2.30;;;20.40;1.00;;;;;;4984910;28;20214;-77
2023/07/15 04:18:40;;;;;;;5.40;2.50;;;20.40;1.00;;;;;;4985827;28;20229;-80
2023/07/15 04:21:07;;;;;;;3.80;2.10;;;20.20;1.00;;;;;;5001693;28;20205;-76
2023/07/15 04:23:34;;;;;;;4.77;2.10;;;20.20;14.60;;;;;;4984607;28;20292;-78
2023/07/15 04:26:02;;;;;;;3.43;2.13;;;20.20;99.90;;;;;;4999878;28;20226;-77
2023/07/15 04:28:28;;;;;;;2.83;2.30;;;20.20;99.90;;;;;;4984082;28;20265;-77
2023/07/15 04:30:55;;;;;;;3.20;2.17;;;20.20;99.90;;;;;;4984906;28;20203;-76
2023/07/15 04:33:23;;;;;;;4.07;2.27;;;20.20;99.90;;;;;;4983010;28;20215;-76
2023/07/15 04:35:50;;;;;;;3.57;2.33;;;20.20;99.90;;;;;;4985158;28;20259;-87
2023/07/15 04:38:20;;;;;;;5.33;2.17;;;20.30;99.90;;;;;;4987049;28;20214;-83
2023/07/15 04:40:47;;;;;;;2.90;2.60;;;20.30;99.90;;;;;;4986681;28;20285;-89
2023/07/15 04:43:14;;;;;;;2.20;2.00;;;20.30;99.90;;;;;;4985283;28;20242;-88
2023/07/15 04:45:41;;;;;;;5.43;2.30;;;20.30;99.90;;;;;;4987688;28;20210;-80
2023/07/15 04:48:08;;;;;;;3.90;2.10;;;20.30;99.90;;;;;;4981027;28;20276;-79
2023/07/15 04:50:36;;;;;;;3.20;2.07;;;20.30;99.90;;;;;;4984931;28;20205;-80
2023/07/15 04:53:03;;;;;;;4.63;2.20;;;20.20;99.90;;;;;;4980357;28;20202;-79
2023/07/15 04:55:29;;;;;;;3.67;1.93;;;20.30;92.20;;;;;;4980017;28;20261;-80
2023/07/15 04:57:56;;;;;;;6.30;1.90;;;20.40;1.00;;;;;;4994484;28;20202;-80
2023/07/15 05:00:23;;;;;;;5.13;2.30;;;20.40;1.00;;;;;;4979078;28;20246;-80
2023/07/15 05:02:50;;;;;;;3.37;2.17;;;20.50;1.00;;;;;;4989875;28;20232;-80
2023/07/15 05:05:17;;;;;;;5.03;2.03;;;20.50;21.70;;;;;;4999874;28;20226;-80
2023/07/15 05:07:44;;;;;;;3.57;1.90;;;20.50;1.00;;;;;;4981018;28;20206;-80
2023/07/15 05:10:24;;;;;;;5.27;1.93;;;20.60;26.30;;;;;;4981533;28;20584;-79
2023/07/15 05:12:52;;;;;;;2.90;1.73;;;20.70;3.10;;;;;;4986066;28;20577;-79
2023/07/15 05:15:18;;;;;;;2.93;2.10;;;20.70;47.30;;;;;;4979465;28;20613;-79
2023/07/15 05:17:45;;;;;;;2.90;2.30;;;20.70;55.10;;;;;;4978651;28;20217;-80
2023/07/15 05:20:18;;;;;;;4.67;2.20;;;20.80;99.90;;;;;;4982841;28;20322;-79
2023/07/15 05:22:45;;;;;;;4.83;2.60;;;20.70;82.50;;;;;;4978231;28;20298;-79
2023/07/15 05:25:15;;;;;;;3.60;2.37;;;20.80;99.60;;;;;;4980710;28;20204;-79
2023/07/15 05:27:42;;;;;;;5.03;2.30;;;21.00;99.90;;;;;;4978956;28;20223;-80
2023/07/15 05:30:09;;;;;;;4.73;2.27;;;20.90;99.90;;;;;;4980404;28;20228;-79
2023/07/15 05:32:37;;;;;;;2.60;2.37;;;21.00;99.90;;;;;;4980621;28;20221;-79
2023/07/15 05:35:05;;;;;;;7.30;2.60;;;21.00;99.90;;;;;;4980491;28;20305;-79
2023/07/15 05:37:32;;;;;;;4.47;2.30;;;21.10;99.90;;;;;;4992323;28;20208;-79
2023/07/15 05:39:59;;;;;;;3.73;2.30;;;21.30;99.90;;;;;;4997296;28;20674;-81
2023/07/15 05:42:26;;;;;;;3.23;2.60;;;21.30;99.90;;;;;;4633249;28;9999895;-80
2023/07/15 05:44:53;;;;;;;3.23;2.27;;;21.20;99.90;;;;;;4943036;28;20241;-79
2023/07/15 05:47:19;;;;;;;3.50;2.40;;;21.30;99.90;;;;;;4963683;28;20206;-80
2023/07/15 05:49:47;;;;;;;3.10;2.30;;;21.30;99.90;;;;;;4976954;28;20231;-80
2023/07/15 05:52:14;;;;;;;4.47;2.70;;;21.40;99.90;;;;;;4983090;28;20218;-79
2023/07/15 05:54:41;;;;;;;4.63;2.60;;;21.40;99.90;;;;;;4984595;28;20216;-80
2023/07/15 05:57:08;;;;;;;5.47;2.30;;;21.40;99.90;;;;;;4981620;28;20198;-79
2023/07/15 05:59:35;;;;;;;2.90;2.33;;;21.40;99.90;;;;;;4983501;28;20842;-80
2023/07/15 06:02:02;;;;;;;3.93;2.30;;;21.40;99.90;;;;;;4977539;28;20206;-77
2023/07/15 06:04:29;;;;;;;3.93;2.67;;;21.40;99.90;;;;;;4973864;28;20248;-77
2023/07/15 06:06:56;;;;;;;4.57;2.60;;;21.40;99.90;;;;;;4980655;28;20210;-77
2023/07/15 06:09:23;;;;;;;4.47;2.67;;;21.60;99.90;;;;;;4982185;28;20300;-77
2023/07/15 06:11:50;;;;;;;3.47;2.80;;;21.70;99.90;;;;;;4989910;28;21022;-78
2023/07/15 06:14:17;;;;;;;5.20;2.83;;;21.60;99.90;;;;;;4978024;28;20603;-78
2023/07/15 06:16:44;;;;;;;3.90;2.93;;;21.80;99.90;;;;;;4977404;28;20576;-77
2023/07/15 06:19:11;;;;;;;4.10;2.73;;;21.90;99.90;;;;;;4976590;28;20204;-78
2023/07/15 06:21:40;;;;;;;3.83;2.90;;;21.90;43.90;;;;;;4981185;28;20205;-78
2023/07/15 06:24:09;;;;;;;3.67;2.87;;;21.90;99.90;;;;;;4993193;28;20218;-77
2023/07/15 06:26:36;;;;;;;5.47;2.93;;;21.80;19.00;;;;;;4974873;28;20207;-76
2023/07/15 06:29:03;;;;;;;3.90;2.63;;;21.80;1.00;;;;;;4976767;28;20625;-77
2023/07/15 06:31:30;;;;;;;3.83;2.70;;;21.90;1.00;;;;;;4984838;28;20264;-77
2023/07/15 06:33:57;;;;;;;4.43;2.60;;;22.10;1.00;;;;;;4985216;28;20209;-76
2023/07/15 06:36:24;;;;;;;5.47;2.60;;;22.10;1.00;;;;;;4987909;28;20209;-77
2023/07/15 06:38:51;;;;;;;4.87;2.67;;;22.30;1.00;;;;;;4993484;28;20210;-77
2023/07/15 06:41:18;;;;;;;3.50;2.47;;;22.30;1.00;;;;;;4986086;28;20245;-77
2023/07/15 06:43:45;;;;;;;5.30;2.23;;;22.30;1.00;;;;;;4989018;28;20758;-77
2023/07/15 06:46:11;;;;;;;3.03;2.13;;;22.50;1.00;;;;;;4987737;28;20771;-77
2023/07/15 06:48:38;;;;;;;4.57;2.30;;;22.60;1.00;;;;;;4986323;28;20205;-76
2023/07/15 06:51:05;;;;;;;9.33;3.07;;;22.80;1.00;;;;;;4986486;28;20620;-76
2023/07/15 06:53:32;;;;;;;3.77;2.40;;;23.00;1.00;;;;;;4985503;28;20849;-77
2023/07/15 06:56:00;;;;;;;4.10;2.50;;;23.10;1.00;;;;;;4985622;28;20209;-81
2023/07/15 06:58:45;;;;;;;2.87;2.43;;;23.00;1.00;;;;;;4987108;28;20257;-83
2023/07/15 07:01:12;;;;;;;3.27;2.43;;;23.10;1.00;;;;;;4978486;28;20214;-83
2023/07/15 07:03:39;;;;;;;3.50;2.30;;;23.10;1.00;;;;;;4980340;28;20610;-84
2023/07/15 07:06:06;;;;;;;3.00;2.50;;;23.20;1.00;;;;;;4989424;28;20213;-81
2023/07/15 07:08:33;;;;;;;3.60;2.40;;;23.40;1.00;;;;;;4980676;28;20228;-83
2023/07/15 07:11:00;;;;;;;4.67;2.53;;;23.60;1.00;;;;;;4985631;28;20209;-82
2023/07/15 07:13:28;;;;;;;3.20;2.40;;;23.70;1.00;;;;;;4984161;28;20206;-83
2023/07/15 07:15:58;;;;;;;3.60;2.43;;;23.60;1.00;;;;;;4994605;28;20646;-83
2023/07/15 07:18:26;;;;;;;6.53;2.47;;;23.90;1.00;;;;;;4971979;28;20200;-83
2023/07/15 07:20:57;;;;;;;5.57;2.60;;;24.20;1.00;;;;;;4999717;28;20775;-82
2023/07/15 07:23:24;;;;;;;7.37;2.50;;;24.30;1.00;;;;;;4983234;28;20303;-84
2023/07/15 07:25:52;;;;;;;4.03;2.03;;;24.10;1.00;;;;;;4982736;28;20217;-79
2023/07/15 07:28:41;;;;;;;2.30;1.87;;;24.20;1.00;;;;;;5000747;28;20208;-80
2023/07/15 07:31:09;;;;;;;3.93;2.03;;;24.30;1.00;;;;;;4982714;28;20695;-79
2023/07/15 07:33:38;;;;;;;3.33;2.00;;;24.30;1.00;;;;;;5000650;28;20629;-80
2023/07/15 07:36:05;;;;;;;2.30;1.70;;;24.30;1.00;;;;;;4986356;28;20283;-79
2023/07/15 07:38:32;;;;;;;4.30;2.07;;;24.50;1.00;;;;;;4984784;28;20681;-79
2023/07/15 07:41:08;;;;;;;4.83;2.00;;;24.70;1.00;;;;;;4982282;28;20202;-79
2023/07/15 07:43:36;;;;;;;3.60;1.80;;;24.50;1.00;;;;;;4981563;28;20236;-79
2023/07/15 07:46:08;;;;;;;5.03;1.93;;;24.10;1.00;;;;;;4987188;28;20204;-79
2023/07/15 07:48:35;;;;;;;3.47;1.93;;;23.90;1.00;;;;;;4988087;28;20222;-79
2023/07/15 07:51:01;;;;;;;4.77;1.97;;;23.90;1.00;;;;;;4993410;28;20202;-79
2023/07/15 07:53:29;;;;;;;4.73;1.97;;;24.00;1.00;;;;;;4987133;28;20198;-79
2023/07/15 07:55:56;;;;;;;3.30;1.87;;;24.00;1.00;;;;;;4988499;28;20259;-80
2023/07/15 07:58:23;;;;;;;4.17;1.73;;;24.10;1.00;;;;;;4982223;28;20222;-79
2023/07/15 08:00:50;;;;;;;11.43;1.83;;;24.10;1.00;;;;;;4981458;28;20222;-79
2023/07/15 08:03:18;;;;;;;3.33;1.70;;;24.20;1.00;;;;;;4983163;28;20238;-79
2023/07/15 08:05:47;;;;;;;3.67;1.90;;;24.10;1.00;;;;;;4988803;28;20292;-77
2023/07/15 08:08:15;;;;;;;2.33;1.60;;;24.10;1.00;;;;;;5000649;28;20202;-76
2023/07/15 08:10:43;;;;;;;2.17;1.80;;;24.00;1.00;;;;;;4987813;28;20204;-76
2023/07/15 08:13:10;;;;;;;4.33;1.67;;;24.00;1.00;;;;;;4983003;28;20205;-76
2023/07/15 08:15:37;;;;;;;2.00;1.67;;;24.40;1.00;;;;;;4986660;28;20290;-78
2023/07/15 08:18:05;;;;;;;4.27;1.53;;;24.50;1.00;;;;;;4981439;28;20757;-79
2023/07/15 08:20:33;;;;;;;1.63;1.40;;;24.40;1.00;;;;;;4984076;28;20233;-79
2023/07/15 08:23:00;;;;;;;2.70;1.60;;;24.70;1.00;;;;;;4982827;28;20836;-77
2023/07/15 08:25:27;;;;;;;2.27;1.50;;;25.10;1.00;;;;;;4984107;28;20222;-77
2023/07/15 08:27:55;;;;;;;3.30;1.20;;;25.50;1.00;;;;;;4983036;28;20288;-77
2023/07/15 08:30:22;;;;;;;3.47;1.50;;;25.50;1.00;;;;;;4980999;28;20206;-77
2023/07/15 08:32:50;;;;;;;4.10;1.20;;;25.40;1.00;;;;;;4985755;28;20202;-77
2023/07/15 08:35:17;;;;;;;2.20;1.23;;;25.00;1.00;;;;;;4979944;28;20212;-77
2023/07/15 08:37:43;;;;;;;7.33;1.83;;;24.80;1.00;;;;;;4971303;28;20297;-83
2023/07/15 08:40:11;;;;;;;2.65;1.38;;;24.80;1.00;;;;;;4986887;28;20698;-82
2023/07/15 08:42:39;;;;;;;1.43;1.30;;;24.60;1.00;;;;;;4977944;28;20307;-81
2023/07/15 08:45:06;;;;;;;2.67;1.27;;;24.50;1.00;;;;;;4986374;28;20306;-82
2023/07/15 08:47:33;;;;;;;3.43;1.50;;;24.40;1.00;;;;;;4987935;28;20222;-81
2023/07/15 08:50:03;;;;;;;3.33;1.00;;;24.30;1.00;;;;;;4988232;28;20206;-82
2023/07/15 08:52:31;;;;;;;3.03;1.40;;;24.30;1.00;;;;;;4988981;28;20603;-82
2023/07/15 08:54:59;;;;;;;1.63;1.30;;;24.10;22.10;;;;;;4981606;28;20213;-81
2023/07/15 08:57:26;;;;;;;1.90;1.43;;;23.90;45.60;;;;;;4984811;28;20205;-82
2023/07/15 08:59:54;;;;;;;2.70;1.40;;;24.00;66.70;;;;;;4996496;28;20724;-83
2023/07/15 09:02:22;;;;;;;2.03;1.40;;;23.90;99.90;;;;;;4988164;28;20317;-82
2023/07/15 09:04:49;;;;;;;2.13;1.30;;;24.00;99.90;;;;;;4994494;28;20615;-82
2023/07/15 09:07:26;;;;;;;1.40;1.30;;;24.20;99.90;;;;;;4989220;28;20209;-81
2023/07/15 09:09:53;;;;;;;1.93;1.50;;;24.10;99.90;;;;;;4986804;28;20202;-82
2023/07/15 09:12:23;;;;;;;3.00;1.40;;;23.90;99.50;;;;;;4981470;28;20194;-82
2023/07/15 09:14:51;;;;;;;2.07;1.47;;;23.90;99.90;;;;;;4987461;28;20202;-79
2023/07/15 09:17:21;;;;;;;2.60;1.50;;;24.00;99.90;;;;;;4988109;28;20210;-79
2023/07/15 09:19:49;;;;;;;2.37;1.40;;;23.90;99.90;;;;;;4994207;28;20210;-79
2023/07/15 09:22:18;;;;;;;3.93;1.60;;;23.80;99.90;;;;;;4984999;28;20680;-79
2023/07/15 09:24:45;;;;;;;3.70;1.37;;;23.80;99.90;;;;;;4998576;28;20214;-78
2023/07/15 09:27:12;;;;;;;5.23;1.50;;;23.80;95.20;;;;;;4987916;28;20198;-79
2023/07/15 09:29:39;;;;;;;3.33;1.40;;;23.80;99.90;;;;;;4989775;28;20706;-79
2023/07/15 09:32:07;;;;;;;1.80;1.13;;;24.00;83.60;;;;;;4990194;28;20646;-79
2023/07/15 09:34:51;;;;;;;2.10;1.20;;;24.10;33.40;;;;;;4994812;28;20291;-79
2023/07/15 09:37:31;;;;;;;1.63;1.47;;;24.10;1.00;;;;;;4989148;28;20216;-79
2023/07/15 09:40:05;;;;;;;1.73;1.37;;;24.10;52.70;;;;;;4989780;28;20212;-78
2023/07/15 09:42:51;;;;;;;2.37;1.43;;;24.20;1.00;;;;;;4982391;28;20206;-78
2023/07/15 09:45:36;;;;;;;3.03;1.60;;;24.20;22.60;;;;;;4980112;28;20244;-79
2023/07/15 09:48:14;;;;;;;2.33;1.60;;;24.20;1.00;;;;;;4988151;28;20652;-79
2023/07/15 09:50:42;;;;;;;1.83;1.50;;;24.20;10.20;;;;;;4989228;28;20216;-79
2023/07/15 09:53:09;;;;;;;4.87;1.40;;;24.20;12.20;;;;;;4982182;28;21661;-78
2023/07/15 09:55:37;;;;;;;3.13;1.63;;;24.30;99.90;;;;;;4988858;28;20588;-79
2023/07/15 09:58:22;;;;;;;4.30;1.80;;;24.20;1.00;;;;;;4984500;28;20206;-82
2023/07/15 10:01:02;;;;;;;5.43;1.80;;;24.20;19.60;;;;;;4983246;28;20221;-82
2023/07/15 10:03:47;;;;;;;2.10;1.70;;;24.00;1.00;;;;;;5000487;28;20273;-81
2023/07/15 10:06:15;;;;;;;2.97;1.60;;;23.80;1.00;;;;;;4987630;28;20223;-79
2023/07/15 10:08:43;;;;;;;3.67;2.03;;;23.90;1.00;;;;;;5004557;28;20836;-79
2023/07/15 10:11:11;;;;;;;2.47;1.70;;;23.80;1.00;;;;;;4987825;28;20197;-79
2023/07/15 10:13:38;;;;;;;3.00;1.60;;;23.70;1.00;;;;;;4992622;28;20220;-79
2023/07/15 10:16:06;;;;;;;2.77;1.53;;;23.60;1.00;;;;;;4995474;28;20294;-79
2023/07/15 10:18:33;;;;;;;2.43;1.70;;;23.60;1.00;;;;;;4987625;28;20259;-79
2023/07/15 10:21:05;;;;;;;3.90;1.70;;;23.50;1.00;;;;;;4985208;28;20594;-79
2023/07/15 10:23:33;;;;;;;2.50;1.53;;;23.50;42.00;;;;;;4974031;28;20297;-79
2023/07/15 10:26:07;;;;;;;4.93;1.60;;;23.60;99.90;;;;;;4631579;28;9999753;-77
2023/07/15 10:28:39;;;;;;;3.03;1.40;;;23.30;99.90;;;;;;4979521;28;20595;-78
2023/07/15 10:31:13;;;;;;;6.17;1.50;;;23.40;99.90;;;;;;4986097;28;20613;-79
2023/07/15 10:33:58;;;;;;;4.70;1.73;;;23.30;99.90;;;;;;4979873;28;20291;-78
2023/07/15 10:36:37;;;;;;;2.37;1.60;;;23.30;99.90;;;;;;4997971;28;20914;-79
2023/07/15 10:39:12;;;;;;;3.70;1.70;;;23.20;99.90;;;;;;4982990;28;20202;-78
2023/07/15 10:41:41;;;;;;;4.87;1.67;;;23.10;99.90;;;;;;4977714;28;20206;-79
2023/07/15 10:44:23;;;;;;;3.10;1.70;;;23.10;99.90;;;;;;4984990;28;20252;-79
2023/07/15 10:46:54;;;;;;;3.67;1.63;;;23.30;99.90;;;;;;4986450;28;20217;-79
2023/07/15 10:49:21;;;;;;;2.60;1.70;;;23.40;99.90;;;;;;5001340;28;20221;-78
2023/07/15 10:51:52;;;;;;;2.97;1.47;;;23.60;99.90;;;;;;4986856;28;20311;-79
2023/07/15 10:54:27;;;;;;;2.53;1.67;;;23.60;99.90;;;;;;4989163;28;20203;-79
2023/07/15 10:56:55;;;;;;;5.03;2.17;;;23.50;99.90;;;;;;4976380;28;20211;-79
2023/07/15 10:59:34;;;;;;;3.13;1.20;;;23.50;99.90;;;;;;4981293;28;20213;-79
2023/07/15 11:02:01;;;;;;;2.47;1.40;;;23.50;22.00;;;;;;4996155;28;20225;-79
2023/07/15 11:04:30;;;;;;;3.37;1.70;;;23.80;99.90;;;;;;4976539;28;20244;-79
2023/07/15 11:07:05;;;;;;;2.83;1.70;;;24.00;92.10;;;;;;4996523;28;20234;-79
2023/07/15 11:09:36;;;;;;;2.87;1.43;;;23.70;1.00;;;;;;4981623;28;20235;-79
2023/07/15 11:12:14;;;;;;;1.90;1.50;;;23.70;17.20;;;;;;4980409;28;20207;-79
2023/07/15 11:14:43;;;;;;;3.60;2.33;;;23.70;95.80;;;;;;4996486;28;20199;-79
2023/07/15 11:17:13;;;;;;;2.87;1.67;;;23.50;5.60;;;;;;4981225;28;20298;-77
2023/07/15 11:19:45;;;;;;;2.00;1.27;;;23.50;33.40;;;;;;4981361;28;20680;-76
2023/07/15 11:22:14;;;;;;;3.33;1.53;;;23.70;95.50;;;;;;4985756;28;20224;-77
2023/07/15 11:24:41;;;;;;;3.53;1.70;;;23.80;99.90;;;;;;4982301;28;20232;-76
2023/07/15 11:27:09;;;;;;;1.50;1.40;;;23.80;74.70;;;;;;4982025;28;20197;-78
2023/07/15 11:29:36;;;;;;;2.47;1.50;;;23.80;1.00;;;;;;4984301;28;20212;-78
2023/07/15 11:32:03;;;;;;;4.80;2.10;;;24.00;1.00;;;;;;4971943;28;20226;-78
2023/07/15 11:34:30;;;;;;;2.53;1.50;;;24.30;1.00;;;;;;4974649;28;20580;-77
2023/07/15 11:36:58;;;;;;;4.27;1.50;;;24.20;1.00;;;;;;4981856;28;20232;-77
2023/07/15 11:39:25;;;;;;;2.50;1.40;;;24.20;1.00;;;;;;4981498;28;20216;-77
2023/07/15 11:41:52;;;;;;;3.00;1.80;;;24.50;1.00;;;;;;4979761;28;20224;-79
2023/07/15 11:44:21;;;;;;;3.07;1.57;;;24.70;1.00;;;;;;5000577;28;20931;-78
2023/07/15 11:46:49;;;;;;;1.53;1.20;;;24.80;1.00;;;;;;4985344;28;20296;-78
2023/07/15 11:49:21;;;;;;;1.40;1.30;;;24.70;1.00;;;;;;4999289;28;20680;-78
2023/07/15 11:51:48;;;;;;;4.03;1.67;;;24.60;1.00;;;;;;4986099;28;20204;-77
2023/07/15 11:54:16;;;;;;;2.50;1.43;;;24.90;1.00;;;;;;4982104;28;20271;-79
2023/07/15 11:56:45;;;;;;;3.10;1.43;;;25.00;1.00;;;;;;4980833;28;20198;-76
2023/07/15 11:59:32;;;;;;;3.60;1.30;;;25.00;1.00;;;;;;4998259;28;20210;-77
2023/07/15 12:02:03;;;;;;;3.03;1.30;;;25.00;1.00;;;;;;4979342;28;20207;-77
2023/07/15 12:04:31;;;;;;;5.53;1.50;;;25.00;1.00;;;;;;4981679;28;20315;-78
2023/07/15 12:07:04;;;;;;;2.53;1.20;;;25.40;1.00;;;;;;4986000;28;20190;-79
2023/07/15 12:09:31;;;;;;;4.97;1.30;;;25.60;1.00;;;;;;4979975;28;20218;-77
2023/07/15 12:11:58;;;;;;;1.03;0.80;;;25.30;1.00;;;;;;4996529;28;20202;-77
2023/07/15 12:14:26;;;;;;;3.00;1.30;;;25.10;1.00;;;;;;4980781;28;20213;-77
2023/07/15 12:16:58;;;;;;;2.77;1.33;;;25.00;1.00;;;;;;4986084;28;20658;-78
2023/07/15 12:19:28;;;;;;;1.93;1.23;;;25.00;1.00;;;;;;4979759;28;20550;-77
2023/07/15 12:21:55;;;;;;;3.93;1.20;;;25.20;1.00;;;;;;4984912;28;20198;-77
2023/07/15 12:24:22;;;;;;;2.47;1.02;;;25.20;1.00;;;;;;4979963;28;20206;-77
2023/07/15 12:26:49;;;;;;;2.17;1.33;;;24.90;1.00;;;;;;4981804;28;20210;-77
2023/07/15 12:29:16;;;;;;;1.83;1.10;;;24.90;1.00;;;;;;4979934;28;20200;-77
2023/07/15 12:31:42;;;;;;;4.17;1.60;;;24.80;1.00;;;;;;4974963;28;20202;-77
2023/07/15 12:34:09;;;;;;;1.30;1.20;;;24.80;1.00;;;;;;4977967;28;20225;-77
2023/07/15 12:36:36;;;;;;;1.80;1.20;;;24.80;1.00;;;;;;4979889;28;20241;-76
2023/07/15 12:39:04;;;;;;;2.87;1.40;;;24.80;1.00;;;;;;4982737;28;20206;-77
2023/07/15 12:41:31;;;;;;;2.87;1.57;;;24.70;1.00;;;;;;4980124;28;20222;-77
2023/07/15 12:43:57;;;;;;;2.90;1.50;;;25.00;1.00;;;;;;4982431;28;20236;-77
2023/07/15 12:46:24;;;;;;;2.40;1.70;;;25.20;1.00;;;;;;4983059;28;20256;-79
2023/07/15 12:48:53;;;;;;;3.00;1.53;;;25.40;1.00;;;;;;4985451;28;20297;-80
2023/07/15 12:51:20;;;;;;;1.93;1.60;;;25.90;1.00;;;;;;4982367;28;20206;-79
2023/07/15 12:53:47;;;;;;;4.43;1.47;;;26.00;1.00;;;;;;4981122;28;20300;-79
2023/07/15 12:56:14;;;;;;;2.00;1.40;;;26.20;1.00;;;;;;4980240;28;20349;-79
2023/07/15 12:58:42;;;;;;;2.63;1.80;;;25.80;1.00;;;;;;4998300;28;20206;-79
2023/07/15 13:01:09;;;;;;;2.40;2.20;;;25.70;1.00;;;;;;4976390;28;20284;-79